Terminal Aerodrome Forecast
Issued by NWS

Home | Current Version | Previous Version | Graphics & Text | Print | Product List | Glossary On
Versions: 1 2 3 4 5 6 7 8 9 10 11 12 13 14 15 16 17 18 19 20
091
FTUS43 KICT 050520
TAFRSL
TAF
KRSL 050520Z 0506/0606 20010KT P6SM SKC
     FM051600 19017G25KT P6SM SCT250
     FM052100 21010KT P6SM BKN250
     FM060100 35015G23KT P6SM BKN250=

USA.gov is the U.S. government's official web portal to all federal, state and local government web resources and services.